Time;durP1;ratioP1;P1;durP2;ratioP2;P2;SDS_P1;SDS_P2;PMS_P1;PMS_P2;Temp;Humidity;BMP_temperature;BMP_pressure;BME280_temperature;BME280_humidity;BME280_pressure;Samples;Min_cycle;Max_cycle;Signal;HPM_P1;HPM_P2
2022/06/30 00:00:53;;;;;;;5.40;4.90;;;20.10;70.20;;;;;;4861296;29;20517;-82
2022/06/30 00:03:19;;;;;;;4.93;4.53;;;20.10;70.20;;;;;;4859025;29;20461;-81
2022/06/30 00:05:46;;;;;;;8.63;4.40;;;20.10;70.40;;;;;;4857844;29;20461;-81
2022/06/30 00:08:15;;;;;;;6.43;4.53;;;20.10;70.50;;;;;;4857328;29;20467;-80
2022/06/30 00:10:43;;;;;;;5.27;4.60;;;20.10;70.60;;;;;;4855835;29;20443;-80
2022/06/30 00:13:09;;;;;;;4.70;4.30;;;20.10;70.40;;;;;;4850725;29;20548;-81
2022/06/30 00:15:37;;;;;;;5.10;4.70;;;20.20;70.20;;;;;;4849338;29;20520;-80
2022/06/30 00:18:04;;;;;;;5.57;4.47;;;20.20;69.40;;;;;;4848585;29;20477;-80
2022/06/30 00:20:31;;;;;;;5.07;4.07;;;20.10;69.40;;;;;;4848599;29;20494;-81
2022/06/30 00:22:58;;;;;;;4.63;4.23;;;20.00;69.40;;;;;;4848510;29;20512;-81
2022/06/30 00:25:26;;;;;;;7.90;4.93;;;20.00;69.90;;;;;;4849705;29;20557;-80
2022/06/30 00:27:53;;;;;;;4.70;4.30;;;19.90;70.10;;;;;;4849875;29;20783;-80
2022/06/30 00:30:20;;;;;;;6.17;4.70;;;19.90;70.90;;;;;;4853427;29;20426;-79
2022/06/30 00:32:47;;;;;;;4.20;3.90;;;19.80;71.70;;;;;;4860435;29;20474;-80
2022/06/30 00:35:14;;;;;;;4.63;4.23;;;19.80;72.10;;;;;;4856938;29;20609;-81
2022/06/30 00:37:41;;;;;;;4.87;4.47;;;19.80;72.10;;;;;;4861565;29;20460;-82
2022/06/30 00:40:09;;;;;;;5.20;4.23;;;19.80;72.00;;;;;;4861440;29;20498;-81
2022/06/30 00:42:37;;;;;;;7.23;4.10;;;19.70;72.00;;;;;;4860905;29;20516;-81
2022/06/30 00:45:05;;;;;;;5.30;4.27;;;19.70;72.30;;;;;;4861727;29;20482;-81
2022/06/30 00:47:32;;;;;;;4.77;4.37;;;19.60;72.50;;;;;;4854018;29;20481;-80
2022/06/30 00:49:59;;;;;;;4.90;4.50;;;19.60;73.10;;;;;;4854786;29;20490;-82
2022/06/30 00:52:29;;;;;;;6.10;4.30;;;19.60;72.50;;;;;;4850158;29;20520;-80
2022/06/30 00:55:00;;;;;;;4.70;4.30;;;19.60;72.70;;;;;;4854034;29;20517;-83
2022/06/30 00:57:28;;;;;;;5.83;4.40;;;19.60;73.00;;;;;;4854706;29;20860;-82
2022/06/30 00:59:58;;;;;;;4.63;4.23;;;19.60;74.00;;;;;;4852448;29;20962;-79
2022/06/30 01:02:28;;;;;;;6.50;4.77;;;19.60;73.70;;;;;;4865569;29;20517;-80
2022/06/30 01:04:58;;;;;;;8.27;5.10;;;19.50;74.20;;;;;;4867268;29;20469;-82
2022/06/30 01:07:27;;;;;;;4.73;4.20;;;19.40;75.10;;;;;;4868213;29;20461;-81
2022/06/30 01:12:44;;;;;;;4.80;4.50;;;19.30;76.00;;;;;;4853144;29;20436;-80
2022/06/30 01:15:15;;;;;;;5.43;4.93;;;19.20;76.00;;;;;;4853755;29;20826;-81
2022/06/30 01:17:42;;;;;;;5.50;5.00;;;19.20;76.00;;;;;;4853406;29;20433;-81
2022/06/30 01:20:10;;;;;;;6.47;4.70;;;19.20;76.10;;;;;;4865810;29;20471;-81
2022/06/30 01:22:40;;;;;;;5.33;4.20;;;19.20;76.90;;;;;;4868128;29;20443;-80
2022/06/30 01:25:09;;;;;;;6.63;4.80;;;19.20;77.00;;;;;;4856600;29;20458;-81
2022/06/30 01:27:36;;;;;;;5.10;4.40;;;19.10;76.60;;;;;;4853378;29;20438;-80
2022/06/30 01:30:04;;;;;;;5.20;4.77;;;19.10;76.20;;;;;;4853292;29;20460;-81
2022/06/30 01:32:31;;;;;;;5.13;4.67;;;19.10;75.90;;;;;;4853481;29;20446;-81
2022/06/30 01:34:58;;;;;;;4.60;4.20;;;19.10;76.40;;;;;;4853249;29;20502;-81
2022/06/30 01:37:26;;;;;;;4.53;4.13;;;19.10;76.80;;;;;;4850632;29;20505;-80
2022/06/30 01:39:54;;;;;;;4.53;4.10;;;19.10;76.70;;;;;;4850816;29;20485;-79
2022/06/30 01:42:21;;;;;;;4.63;4.17;;;19.20;76.00;;;;;;4851799;29;20513;-79
2022/06/30 01:44:48;;;;;;;6.63;4.83;;;19.10;75.90;;;;;;4856796;29;20479;-79
2022/06/30 01:47:15;;;;;;;5.00;4.60;;;19.10;75.90;;;;;;4851790;29;20446;-79
2022/06/30 01:49:42;;;;;;;5.17;4.77;;;19.00;75.80;;;;;;4855688;29;20918;-79
2022/06/30 01:52:09;;;;;;;6.90;4.50;;;19.00;75.80;;;;;;4853199;29;20511;-80
2022/06/30 01:54:36;;;;;;;4.83;4.30;;;18.90;76.80;;;;;;4880739;23;20887;-77
2022/06/30 01:57:06;;;;;;;5.93;5.23;;;18.90;77.50;;;;;;4863377;29;20545;-78
2022/06/30 01:59:33;;;;;;;5.87;5.23;;;18.90;78.50;;;;;;4851422;29;20465;-78
2022/06/30 02:02:00;;;;;;;5.00;4.60;;;18.90;79.90;;;;;;4843854;29;20502;-78
2022/06/30 02:07:11;;;;;;;5.00;4.60;;;18.90;80.10;;;;;;4844465;29;20454;-78
2022/06/30 02:09:37;;;;;;;5.13;4.73;;;18.80;81.10;;;;;;4844819;29;20830;-77
2022/06/30 02:14:52;;;;;;;5.07;4.67;;;18.60;82.70;;;;;;4860819;29;20440;-77
2022/06/30 02:17:18;;;;;;;5.10;4.70;;;18.70;82.70;;;;;;4861987;29;20437;-80
2022/06/30 02:19:45;;;;;;;4.87;4.47;;;18.60;83.70;;;;;;4863343;29;20465;-79
2022/06/30 02:22:12;;;;;;;5.87;4.77;;;18.50;82.20;;;;;;4865703;29;20465;-79
2022/06/30 02:24:39;;;;;;;5.73;5.17;;;18.50;83.20;;;;;;4862181;29;20478;-80
2022/06/30 02:27:08;;;;;;;4.97;4.50;;;18.40;83.40;;;;;;4863899;29;20509;-78
2022/06/30 02:29:35;;;;;;;5.20;4.67;;;18.40;83.10;;;;;;4865923;29;20429;-78
2022/06/30 02:32:02;;;;;;;4.80;4.40;;;18.40;83.60;;;;;;4866712;29;20467;-78
2022/06/30 02:34:29;;;;;;;5.77;4.20;;;18.30;83.00;;;;;;4864791;29;20478;-78
2022/06/30 02:36:56;;;;;;;5.00;4.60;;;18.30;82.80;;;;;;4871845;29;20443;-78
2022/06/30 02:39:24;;;;;;;5.30;4.90;;;18.30;83.10;;;;;;4868107;29;20934;-80
2022/06/30 02:41:51;;;;;;;5.03;4.57;;;18.30;82.40;;;;;;4848580;29;21019;-80
2022/06/30 02:44:23;;;;;;;4.77;4.20;;;18.30;83.10;;;;;;4859038;29;20945;-80
2022/06/30 02:46:50;;;;;;;5.80;5.20;;;18.30;82.20;;;;;;4857438;29;20466;-80
2022/06/30 02:49:17;;;;;;;5.53;5.03;;;18.40;82.20;;;;;;4870571;29;20510;-79
2022/06/30 02:51:44;;;;;;;5.20;4.67;;;18.40;81.60;;;;;;4868857;29;20451;-81
2022/06/30 02:54:11;;;;;;;8.07;4.70;;;18.40;82.10;;;;;;4870036;29;20452;-79
2022/06/30 02:56:38;;;;;;;8.10;5.20;;;18.40;82.30;;;;;;4883896;29;20534;-78
2022/06/30 02:59:05;;;;;;;4.80;4.33;;;18.40;83.30;;;;;;4876572;29;20459;-78
2022/06/30 03:01:33;;;;;;;7.57;5.13;;;18.30;83.70;;;;;;4864058;29;20484;-79
2022/06/30 03:04:01;;;;;;;4.73;4.37;;;18.30;83.90;;;;;;4863572;29;20456;-80
2022/06/30 03:06:28;;;;;;;7.87;5.20;;;18.20;84.10;;;;;;4867829;29;20450;-80
2022/06/30 03:08:55;;;;;;;6.00;5.50;;;18.20;85.90;;;;;;4866415;29;20470;-79
2022/06/30 03:11:22;;;;;;;5.57;5.03;;;18.20;87.60;;;;;;4875025;29;20447;-79
2022/06/30 03:13:49;;;;;;;6.30;5.80;;;18.10;87.80;;;;;;4875130;29;20499;-78
2022/06/30 03:16:17;;;;;;;6.27;5.67;;;18.10;88.80;;;;;;4875877;29;20446;-80
2022/06/30 03:18:46;;;;;;;5.37;4.87;;;18.10;89.90;;;;;;4862482;29;20477;-80
2022/06/30 03:21:13;;;;;;;6.10;5.10;;;18.00;90.50;;;;;;4859167;29;20490;-79
2022/06/30 03:23:40;;;;;;;6.00;5.30;;;18.00;90.80;;;;;;4871866;29;20460;-79
2022/06/30 03:26:07;;;;;;;5.20;4.80;;;18.00;90.90;;;;;;4877023;29;20477;-79
2022/06/30 03:28:34;;;;;;;5.93;5.43;;;18.00;91.50;;;;;;4877665;29;20864;-79
2022/06/30 03:31:01;;;;;;;6.33;5.73;;;17.90;91.00;;;;;;4867490;29;20451;-79
2022/06/30 03:33:28;;;;;;;7.93;5.37;;;17.80;91.70;;;;;;4858392;29;20571;-80
2022/06/30 03:35:57;;;;;;;12.23;5.77;;;17.80;91.70;;;;;;4857837;29;20461;-79
2022/06/30 03:38:25;;;;;;;7.47;5.97;;;17.80;91.90;;;;;;4857969;29;20489;-79
2022/06/30 03:40:52;;;;;;;6.23;5.73;;;17.80;92.70;;;;;;4856802;29;20491;-79
2022/06/30 03:43:21;;;;;;;6.40;5.80;;;17.80;92.40;;;;;;4857496;29;20475;-78
2022/06/30 03:45:48;;;;;;;6.80;6.13;;;17.80;92.50;;;;;;4856483;29;20540;-79
2022/06/30 03:48:15;;;;;;;8.00;5.90;;;17.80;92.20;;;;;;4857714;29;20530;-79
2022/06/30 03:50:42;;;;;;;6.47;5.60;;;17.80;92.30;;;;;;4856943;29;20462;-79
2022/06/30 03:53:10;;;;;;;6.17;5.23;;;17.80;92.50;;;;;;4875258;29;20534;-79
2022/06/30 03:55:39;;;;;;;6.13;5.63;;;17.80;92.60;;;;;;4880566;29;20493;-79
2022/06/30 03:58:06;;;;;;;6.87;5.33;;;17.80;92.60;;;;;;4872470;29;20433;-78
2022/06/30 04:00:33;;;;;;;10.00;6.00;;;17.90;92.20;;;;;;4883442;29;20508;-78
2022/06/30 04:03:00;;;;;;;17.90;8.30;;;17.90;92.00;;;;;;4883812;29;20486;-78
2022/06/30 04:05:27;;;;;;;6.03;5.53;;;17.90;91.90;;;;;;4883543;29;20502;-78
2022/06/30 04:07:54;;;;;;;8.87;5.90;;;17.90;91.70;;;;;;4871139;29;20447;-79
2022/06/30 04:10:23;;;;;;;6.53;5.90;;;17.90;91.70;;;;;;4868041;29;20470;-80
2022/06/30 04:12:50;;;;;;;6.57;5.60;;;18.00;91.80;;;;;;4871504;29;20478;-79
2022/06/30 04:15:19;;;;;;;5.23;4.93;;;18.10;91.50;;;;;;4868416;29;20521;-79
2022/06/30 04:17:46;;;;;;;5.97;5.43;;;18.20;90.10;;;;;;4853200;29;20560;-79
2022/06/30 04:20:16;;;;;;;6.63;6.03;;;18.20;88.00;;;;;;4849190;29;20491;-79
2022/06/30 04:22:45;;;;;;;6.63;5.40;;;18.30;86.30;;;;;;4848254;29;20458;-79
2022/06/30 04:25:12;;;;;;;6.63;6.07;;;18.30;83.80;;;;;;4847355;29;20490;-79
2022/06/30 04:27:44;;;;;;;7.07;5.53;;;18.30;83.90;;;;;;4853387;29;20894;-82
2022/06/30 04:30:12;;;;;;;5.47;4.97;;;18.40;83.90;;;;;;4852312;29;20426;-78
2022/06/30 04:32:38;;;;;;;8.13;5.83;;;18.50;82.70;;;;;;4850890;29;20428;-80
2022/06/30 04:35:06;;;;;;;8.67;5.60;;;18.70;82.30;;;;;;4850906;29;20538;-81
2022/06/30 04:37:33;;;;;;;7.87;5.40;;;18.80;81.00;;;;;;4854927;29;20466;-79
2022/06/30 04:42:46;;;;;;;5.37;4.87;;;19.00;77.60;;;;;;4851186;29;20454;-80
2022/06/30 04:45:13;;;;;;;6.07;4.90;;;19.20;76.10;;;;;;4870273;29;20994;-80
2022/06/30 04:47:41;;;;;;;5.43;4.60;;;19.40;75.20;;;;;;4881641;29;20445;-78
2022/06/30 04:50:09;;;;;;;5.60;5.10;;;19.40;74.50;;;;;;4886593;29;20482;-80
2022/06/30 04:52:36;;;;;;;6.80;4.93;;;19.50;73.40;;;;;;4883121;29;20454;-79
2022/06/30 04:55:03;;;;;;;5.23;4.40;;;19.70;72.70;;;;;;4868712;29;20489;-81
2022/06/30 04:57:30;;;;;;;7.40;5.50;;;20.10;71.00;;;;;;4867476;29;20483;-80
2022/06/30 04:59:58;;;;;;;5.30;4.30;;;20.70;67.80;;;;;;4869103;29;20440;-80
2022/06/30 05:02:25;;;;;;;5.20;4.37;;;21.40;61.90;;;;;;4869450;29;20464;-80
2022/06/30 05:04:52;;;;;;;5.73;4.20;;;22.10;57.10;;;;;;4861499;29;20927;-82
2022/06/30 05:07:19;;;;;;;6.20;4.77;;;22.70;53.00;;;;;;4860346;29;20498;-81
2022/06/30 05:09:46;;;;;;;5.57;3.90;;;22.10;55.00;;;;;;4861572;29;20445;-79
2022/06/30 05:12:12;;;;;;;4.73;3.73;;;22.20;54.80;;;;;;4879309;29;20436;-80
2022/06/30 05:14:39;;;;;;;4.40;3.80;;;22.40;53.50;;;;;;4868319;29;20489;-80
2022/06/30 05:17:08;;;;;;;4.43;4.03;;;22.90;52.40;;;;;;4869361;29;20985;-80
2022/06/30 05:19:35;;;;;;;4.97;3.90;;;23.30;51.00;;;;;;4866419;29;20444;-80
2022/06/30 05:22:02;;;;;;;3.33;3.00;;;23.80;49.10;;;;;;4866750;29;20582;-80
2022/06/30 05:27:13;;;;;;;5.80;3.57;;;24.90;45.10;;;;;;4871664;29;20396;-80
2022/06/30 05:29:40;;;;;;;3.63;3.33;;;25.50;43.40;;;;;;4855158;29;20467;-80
2022/06/30 05:32:09;;;;;;;3.07;2.87;;;25.30;43.10;;;;;;4859489;29;20916;-79
2022/06/30 05:34:37;;;;;;;4.80;3.43;;;25.00;43.50;;;;;;4869336;29;20983;-79
2022/06/30 05:37:05;;;;;;;4.10;3.10;;;25.30;42.20;;;;;;4854280;29;20558;-78
2022/06/30 05:39:32;;;;;;;4.37;2.97;;;24.80;43.30;;;;;;4856305;29;20945;-77
2022/06/30 05:41:59;;;;;;;5.13;3.17;;;24.70;43.20;;;;;;4868177;29;20472;-79
2022/06/30 05:44:27;;;;;;;3.10;2.80;;;24.20;43.90;;;;;;4863963;29;21078;-77
2022/06/30 05:46:55;;;;;;;7.70;2.77;;;25.10;43.50;;;;;;4867462;29;20558;-79
2022/06/30 05:49:23;;;;;;;4.70;3.27;;;26.50;39.10;;;;;;4855899;29;20443;-80
2022/06/30 05:51:50;;;;;;;3.93;2.50;;;27.20;38.20;;;;;;4864652;29;21181;-80
2022/06/30 05:54:17;;;;;;;3.47;2.83;;;28.00;35.30;;;;;;4876190;29;21016;-78
2022/06/30 05:56:44;;;;;;;6.47;3.27;;;26.80;38.30;;;;;;4862366;29;20650;-79
2022/06/30 05:59:11;;;;;;;4.63;3.03;;;27.80;35.10;;;;;;4864760;29;20469;-77
2022/06/30 06:01:38;;;;;;;7.63;3.23;;;28.90;33.10;;;;;;4863441;29;20541;-78
2022/06/30 06:04:06;;;;;;;3.00;2.80;;;28.00;34.70;;;;;;4867434;29;20460;-77
2022/06/30 06:06:34;;;;;;;3.43;3.13;;;26.80;37.00;;;;;;4861595;29;20479;-78
2022/06/30 06:09:01;;;;;;;2.63;2.43;;;27.50;34.90;;;;;;4866637;29;20549;-78
2022/06/30 06:11:30;;;;;;;3.57;2.63;;;28.10;33.90;;;;;;4859128;29;21050;-76
2022/06/30 06:13:57;;;;;;;4.20;3.33;;;25.80;38.40;;;;;;4880448;29;20508;-78
2022/06/30 06:16:23;;;;;;;3.50;2.90;;;25.70;38.80;;;;;;4856108;29;20477;-80
2022/06/30 06:18:51;;;;;;;4.97;2.93;;;26.60;37.00;;;;;;4863579;29;20604;-77
2022/06/30 06:21:17;;;;;;;5.07;3.27;;;25.60;38.80;;;;;;4870001;29;21003;-79
2022/06/30 06:23:46;;;;;;;4.03;2.70;;;26.70;37.10;;;;;;4873788;29;20495;-79
2022/06/30 06:26:13;;;;;;;4.77;3.20;;;27.30;36.10;;;;;;4875247;29;20452;-80
2022/06/30 06:31:25;;;;;;;5.47;2.73;;;28.40;33.50;;;;;;4855703;29;20484;-80
2022/06/30 06:33:52;;;;;;;3.47;3.00;;;28.60;33.00;;;;;;4852325;29;20462;-79
2022/06/30 06:36:19;;;;;;;3.80;3.20;;;29.30;30.90;;;;;;4861847;29;20431;-80
2022/06/30 06:38:47;;;;;;;4.03;2.57;;;29.60;29.70;;;;;;4853577;29;20460;-78
2022/06/30 06:41:15;;;;;;;2.97;2.77;;;29.00;30.30;;;;;;4847653;29;20510;-78
2022/06/30 06:43:45;;;;;;;4.13;3.40;;;29.40;29.80;;;;;;4845531;29;20541;-77
2022/06/30 06:46:12;;;;;;;5.33;3.40;;;28.50;31.70;;;;;;4856495;29;20488;-77
2022/06/30 06:48:39;;;;;;;3.93;2.60;;;27.10;34.60;;;;;;4874251;29;20480;-78
2022/06/30 06:51:06;;;;;;;4.00;2.60;;;27.90;33.60;;;;;;4860254;29;20464;-79
2022/06/30 06:53:33;;;;;;;4.13;2.60;;;29.20;30.60;;;;;;4855629;29;20438;-81
2022/06/30 06:56:02;;;;;;;4.30;2.80;;;29.10;30.60;;;;;;4865484;29;20916;-82
2022/06/30 06:58:29;;;;;;;2.80;2.60;;;29.60;29.80;;;;;;4872497;29;20436;-79
2022/06/30 07:00:55;;;;;;;8.00;2.77;;;29.20;30.00;;;;;;4861604;29;20445;-79
2022/06/30 07:03:23;;;;;;;4.00;3.23;;;28.40;31.40;;;;;;4867183;29;20439;-79
2022/06/30 07:05:50;;;;;;;3.63;3.10;;;27.60;33.50;;;;;;4864896;29;21170;-78
2022/06/30 07:08:16;;;;;;;3.00;2.80;;;27.50;33.90;;;;;;4861840;29;20527;-80
2022/06/30 07:10:43;;;;;;;2.70;2.60;;;26.70;34.30;;;;;;4863436;29;20539;-78
2022/06/30 07:13:11;;;;;;;3.80;3.20;;;25.80;37.30;;;;;;4860928;29;20973;-78
2022/06/30 07:15:38;;;;;;;3.17;2.97;;;26.20;37.30;;;;;;4863374;29;20547;-78
2022/06/30 07:18:05;;;;;;;5.93;2.97;;;26.30;36.60;;;;;;4851775;29;20438;-78
2022/06/30 07:20:32;;;;;;;6.10;3.80;;;25.90;36.90;;;;;;4847013;29;20617;-77
2022/06/30 07:22:59;;;;;;;3.87;3.20;;;25.60;37.70;;;;;;4844992;29;20473;-78
2022/06/30 07:25:26;;;;;;;4.33;3.00;;;25.90;36.60;;;;;;4851149;29;20585;-78
2022/06/30 07:27:53;;;;;;;5.37;3.40;;;25.40;38.40;;;;;;4869014;29;20508;-80
2022/06/30 07:30:21;;;;;;;6.80;3.30;;;25.10;39.30;;;;;;4856343;29;20554;-78
2022/06/30 07:32:48;;;;;;;7.53;3.73;;;25.30;38.80;;;;;;4868602;29;20436;-78
2022/06/30 07:35:15;;;;;;;3.53;3.23;;;25.50;38.60;;;;;;4860791;29;20449;-78
2022/06/30 07:37:42;;;;;;;4.87;3.50;;;25.60;38.10;;;;;;4878198;29;20488;-78
2022/06/30 07:40:11;;;;;;;3.33;3.03;;;25.50;38.70;;;;;;4861737;29;20624;-78
2022/06/30 07:42:38;;;;;;;5.13;3.30;;;25.30;39.50;;;;;;4865411;29;20548;-78
2022/06/30 07:45:07;;;;;;;5.00;3.40;;;25.60;38.80;;;;;;4852525;29;20453;-78
2022/06/30 07:47:35;;;;;;;3.10;2.90;;;25.80;37.60;;;;;;4866583;29;20459;-81
2022/06/30 07:50:02;;;;;;;6.57;3.27;;;25.90;37.70;;;;;;4867863;29;20545;-78
2022/06/30 07:52:29;;;;;;;3.93;3.50;;;25.90;38.00;;;;;;4866953;29;20998;-77
2022/06/30 07:54:56;;;;;;;3.77;3.07;;;26.00;38.20;;;;;;4856080;29;20473;-78
2022/06/30 07:57:23;;;;;;;4.17;3.20;;;26.20;37.50;;;;;;4850993;29;20877;-78
2022/06/30 07:59:50;;;;;;;3.67;3.37;;;26.20;38.20;;;;;;4868842;29;20466;-78
2022/06/30 08:02:17;;;;;;;4.67;3.10;;;26.00;39.20;;;;;;4856512;29;20570;-77
2022/06/30 08:04:45;;;;;;;5.20;3.73;;;26.20;39.10;;;;;;4859969;29;20495;-77
2022/06/30 08:07:12;;;;;;;3.97;3.67;;;26.30;39.30;;;;;;4872660;29;20480;-78
2022/06/30 08:09:39;;;;;;;5.10;3.50;;;26.10;39.60;;;;;;4864137;29;21047;-79
2022/06/30 08:12:07;;;;;;;5.93;3.60;;;26.00;39.90;;;;;;4863604;29;20437;-78
2022/06/30 08:14:34;;;;;;;4.60;3.80;;;26.40;39.60;;;;;;4857230;29;20479;-80
2022/06/30 08:17:01;;;;;;;5.60;4.00;;;26.30;40.10;;;;;;4858897;29;20459;-78
2022/06/30 08:19:29;;;;;;;5.07;4.57;;;26.40;39.70;;;;;;4858321;29;20538;-79
2022/06/30 08:21:58;;;;;;;4.87;4.03;;;26.50;39.80;;;;;;4861884;29;20484;-77
2022/06/30 08:24:24;;;;;;;3.90;3.50;;;26.80;39.20;;;;;;4862802;29;20470;-78
2022/06/30 08:26:51;;;;;;;4.07;3.70;;;26.90;38.90;;;;;;4861705;29;20910;-77
2022/06/30 08:29:18;;;;;;;3.93;3.60;;;26.90;39.50;;;;;;4866991;29;20441;-77
2022/06/30 08:31:45;;;;;;;9.13;4.13;;;27.10;39.30;;;;;;4875868;24;20915;-77
2022/06/30 08:34:12;;;;;;;4.10;3.63;;;27.00;39.30;;;;;;4869231;29;20452;-79
2022/06/30 08:36:39;;;;;;;11.37;3.97;;;27.10;39.30;;;;;;4867260;29;20539;-80
2022/06/30 08:42:02;;;;;;;7.13;4.00;;;27.00;39.50;;;;;;4871966;29;20720;-82
2022/06/30 08:42:04;;;;;;;5.20;4.70;;;27.20;39.30;;;;;;4868836;29;20596;-81
2022/06/30 08:44:33;;;;;;;6.83;4.23;;;27.30;39.30;;;;;;4855071;29;20457;-76
2022/06/30 08:47:00;;;;;;;4.03;3.70;;;27.10;40.30;;;;;;4850279;29;20476;-81
2022/06/30 08:49:27;;;;;;;9.43;4.20;;;27.30;40.10;;;;;;4850283;29;20537;-77
2022/06/30 08:51:56;;;;;;;6.13;4.40;;;27.30;40.00;;;;;;4842424;29;20466;-77
2022/06/30 08:54:26;;;;;;;4.73;4.03;;;27.60;39.30;;;;;;4843044;29;20468;-78
2022/06/30 08:56:54;;;;;;;4.87;4.23;;;27.60;39.60;;;;;;4842548;29;20528;-77
2022/06/30 08:59:22;;;;;;;4.63;4.13;;;27.40;39.30;;;;;;4842560;29;20455;-78
2022/06/30 09:01:49;;;;;;;5.10;4.70;;;27.50;39.20;;;;;;4856708;29;21027;-77
2022/06/30 09:04:16;;;;;;;8.77;4.00;;;27.50;39.00;;;;;;4848657;29;20439;-77
2022/06/30 09:06:44;;;;;;;4.60;4.20;;;27.70;38.30;;;;;;4847746;29;20468;-79
2022/06/30 09:09:12;;;;;;;5.30;4.13;;;28.10;37.70;;;;;;4850714;29;20465;-76
2022/06/30 09:11:50;;;;;;;4.60;4.07;;;28.00;37.00;;;;;;4844947;29;20545;-76
2022/06/30 09:14:38;;;;;;;5.27;3.87;;;28.30;36.20;;;;;;4853709;29;20476;-76
2022/06/30 09:17:07;;;;;;;9.20;4.60;;;28.40;35.50;;;;;;4864094;29;20451;-77
2022/06/30 09:19:37;;;;;;;7.20;4.67;;;28.60;34.50;;;;;;4847663;29;20981;-78
2022/06/30 09:22:10;;;;;;;5.80;4.00;;;28.40;34.50;;;;;;4853953;29;20566;-77
2022/06/30 09:24:37;;;;;;;4.47;4.10;;;28.50;34.90;;;;;;4852482;29;20447;-78
2022/06/30 09:27:19;;;;;;;5.80;3.80;;;28.40;34.20;;;;;;4860163;29;20443;-78
2022/06/30 09:29:51;;;;;;;6.63;3.80;;;28.60;33.90;;;;;;4848650;29;20424;-78
2022/06/30 09:32:18;;;;;;;3.70;3.40;;;29.00;32.60;;;;;;4853640;29;20488;-77
2022/06/30 09:34:45;;;;;;;3.80;3.50;;;29.10;32.00;;;;;;4865150;29;20444;-77
2022/06/30 09:37:17;;;;;;;4.27;3.97;;;29.20;31.60;;;;;;4851427;29;20438;-79
2022/06/30 09:39:45;;;;;;;7.37;3.93;;;29.40;31.50;;;;;;4846744;29;20443;-77
2022/06/30 09:42:14;;;;;;;4.80;4.40;;;29.40;31.30;;;;;;4845613;29;20500;-78
2022/06/30 09:44:47;;;;;;;7.40;4.10;;;29.90;30.70;;;;;;4850321;29;20813;-77
2022/06/30 09:47:15;;;;;;;4.63;3.43;;;30.10;28.70;;;;;;4850590;29;20447;-78
2022/06/30 09:49:44;;;;;;;7.37;3.47;;;30.70;27.90;;;;;;4850695;29;20921;-78
2022/06/30 09:52:17;;;;;;;3.60;3.30;;;31.00;27.50;;;;;;4848005;29;20545;-77
2022/06/30 09:54:54;;;;;;;5.70;3.40;;;30.90;26.80;;;;;;4848060;29;20463;-79
2022/06/30 09:57:24;;;;;;;4.50;3.57;;;31.20;25.60;;;;;;4851211;29;20469;-77
2022/06/30 10:00:01;;;;;;;3.57;3.23;;;31.40;25.10;;;;;;4849989;29;20450;-76
2022/06/30 10:02:31;;;;;;;4.20;3.80;;;30.70;27.40;;;;;;4845670;29;20563;-78
2022/06/30 10:04:59;;;;;;;5.03;3.53;;;31.00;27.50;;;;;;4846253;29;20450;-78
2022/06/30 10:07:26;;;;;;;4.80;4.00;;;30.80;27.90;;;;;;4845087;29;20802;-78
2022/06/30 10:09:55;;;;;;;4.30;3.90;;;30.80;27.50;;;;;;4849908;29;20569;-78
2022/06/30 10:12:25;;;;;;;4.57;4.17;;;29.80;28.50;;;;;;4848363;29;20520;-76
2022/06/30 10:14:54;;;;;;;5.00;3.80;;;29.90;28.50;;;;;;4852219;29;20537;-78
2022/06/30 10:17:25;;;;;;;4.43;4.17;;;30.10;28.00;;;;;;4860357;29;20441;-77
2022/06/30 10:19:53;;;;;;;4.23;3.83;;;29.70;28.80;;;;;;4861130;29;20544;-78
2022/06/30 10:22:22;;;;;;;5.10;3.73;;;29.70;28.70;;;;;;4856763;29;20482;-77
2022/06/30 10:24:50;;;;;;;5.00;4.60;;;29.90;27.80;;;;;;4861873;29;20469;-76
2022/06/30 10:27:17;;;;;;;4.07;3.67;;;30.20;28.20;;;;;;4858507;29;20472;-79
2022/06/30 10:29:51;;;;;;;3.93;3.57;;;30.10;28.30;;;;;;4856723;29;20555;-78
2022/06/30 10:32:28;;;;;;;7.50;4.63;;;30.30;28.20;;;;;;4830923;29;20500;-78
2022/06/30 10:35:00;;;;;;;4.00;3.60;;;30.40;28.20;;;;;;4836062;29;20497;-78
2022/06/30 10:37:32;;;;;;;5.03;4.00;;;30.70;27.40;;;;;;4854661;29;20522;-77
2022/06/30 10:40:03;;;;;;;4.00;3.70;;;30.60;27.30;;;;;;4851720;29;20504;-77
2022/06/30 10:42:44;;;;;;;8.77;4.20;;;30.60;27.30;;;;;;4853526;29;20564;-77
2022/06/30 10:45:48;;;;;;;7.10;3.90;;;30.80;27.50;;;;;;4856315;29;20481;-77
2022/06/30 10:48:16;;;;;;;7.00;4.33;;;31.10;26.60;;;;;;4856523;29;20474;-77
2022/06/30 10:50:44;;;;;;;4.20;3.90;;;31.20;26.20;;;;;;4863131;29;20440;-77
2022/06/30 10:53:15;;;;;;;6.60;3.83;;;31.20;26.80;;;;;;4853468;29;20469;-78
2022/06/30 10:55:53;;;;;;;4.33;3.87;;;31.10;26.90;;;;;;4849374;29;20460;-78
2022/06/30 10:58:21;;;;;;;13.30;4.43;;;30.50;27.30;;;;;;4848793;29;20447;-77
2022/06/30 11:00:59;;;;;;;4.50;4.00;;;30.70;27.40;;;;;;4848637;29;20436;-78
2022/06/30 11:04:04;;;;;;;4.37;3.97;;;30.30;27.20;;;;;;4851491;29;20500;-77
2022/06/30 11:07:08;;;;;;;5.63;3.60;;;30.10;27.60;;;;;;4855286;29;20428;-80
2022/06/30 11:10:17;;;;;;;7.70;4.23;;;30.60;27.30;;;;;;4855109;29;20433;-78
2022/06/30 11:13:08;;;;;;;6.00;3.97;;;30.50;27.90;;;;;;4864645;29;20477;-77
2022/06/30 11:15:58;;;;;;;16.57;3.70;;;30.70;26.20;;;;;;4864233;29;20903;-77
2022/06/30 11:18:27;;;;;;;5.87;4.20;;;30.90;26.80;;;;;;4858314;29;20458;-77
2022/06/30 11:20:56;;;;;;;5.57;3.73;;;30.70;27.40;;;;;;4838850;29;20470;-77
2022/06/30 11:23:24;;;;;;;4.20;3.80;;;31.10;27.20;;;;;;4859573;29;20519;-77
2022/06/30 11:28:39;;;;;;;5.30;3.73;;;31.70;25.20;;;;;;4852992;29;20440;-76
2022/06/30 11:31:23;;;;;;;5.30;3.90;;;30.90;26.10;;;;;;4859609;29;20456;-79
2022/06/30 11:33:54;;;;;;;4.83;4.17;;;30.50;26.70;;;;;;4858266;29;20479;-77
2022/06/30 11:36:23;;;;;;;4.63;3.67;;;30.20;27.10;;;;;;4862890;29;20514;-79
2022/06/30 11:38:57;;;;;;;3.57;3.33;;;30.60;25.60;;;;;;4858821;29;20443;-79
2022/06/30 11:44:10;;;;;;;13.13;3.60;;;30.80;26.00;;;;;;4848312;29;20500;-78
2022/06/30 11:46:49;;;;;;;6.87;4.27;;;30.30;27.10;;;;;;4849324;29;20506;-78
2022/06/30 11:49:16;;;;;;;4.63;4.10;;;30.10;27.10;;;;;;4848593;29;20464;-77
2022/06/30 11:51:46;;;;;;;9.60;3.80;;;29.90;27.00;;;;;;4861324;29;20473;-79
2022/06/30 11:54:14;;;;;;;8.30;4.50;;;29.90;26.90;;;;;;4854419;29;20453;-79
2022/06/30 11:56:46;;;;;;;4.63;4.23;;;30.00;27.00;;;;;;4850130;29;20489;-79
2022/06/30 11:59:14;;;;;;;4.60;4.20;;;30.50;26.80;;;;;;4862572;29;20552;-80
2022/06/30 12:01:40;;;;;;;8.20;4.50;;;30.50;25.90;;;;;;4849603;29;20457;-79
2022/06/30 12:04:15;;;;;;;4.40;3.90;;;30.50;26.50;;;;;;4852490;29;20486;-78
2022/06/30 12:06:43;;;;;;;4.63;4.20;;;30.70;26.20;;;;;;4840213;29;20497;-79
2022/06/30 12:09:11;;;;;;;6.70;4.30;;;31.20;25.60;;;;;;4854768;29;20470;-77
2022/06/30 12:11:38;;;;;;;4.37;4.07;;;31.60;24.20;;;;;;4848668;29;20484;-78
2022/06/30 12:14:05;;;;;;;4.80;4.40;;;31.50;24.60;;;;;;4848944;29;20474;-78
2022/06/30 12:16:32;;;;;;;7.87;4.57;;;31.50;24.90;;;;;;4847115;29;20535;-80
2022/06/30 12:18:59;;;;;;;5.13;4.03;;;31.70;24.20;;;;;;4860808;29;20430;-79
2022/06/30 12:21:27;;;;;;;8.37;4.40;;;31.90;23.80;;;;;;4851552;29;20540;-79
2022/06/30 12:23:56;;;;;;;5.20;4.17;;;32.20;24.00;;;;;;4847084;29;20496;-78
2022/06/30 12:26:23;;;;;;;6.23;3.90;;;32.40;23.30;;;;;;4847375;29;20590;-78
2022/06/30 12:28:55;;;;;;;7.27;4.20;;;31.80;23.80;;;;;;4846243;29;20498;-79
2022/06/30 12:31:26;;;;;;;5.50;4.20;;;31.70;24.50;;;;;;4845419;29;20481;-78
2022/06/30 12:33:54;;;;;;;6.30;3.43;;;31.70;23.80;;;;;;4845753;29;20473;-79
2022/06/30 12:36:22;;;;;;;6.37;4.10;;;31.60;24.20;;;;;;4847000;29;20478;-78
2022/06/30 12:38:48;;;;;;;7.30;4.30;;;31.60;24.50;;;;;;4848093;29;20980;-79
2022/06/30 12:41:17;;;;;;;7.03;4.10;;;31.80;23.80;;;;;;4853551;29;20473;-78
2022/06/30 12:43:46;;;;;;;4.17;3.77;;;31.50;24.80;;;;;;4859978;29;20585;-77
2022/06/30 12:46:13;;;;;;;4.60;4.30;;;31.50;25.40;;;;;;4858072;29;20467;-77
2022/06/30 12:48:46;;;;;;;9.43;4.07;;;31.70;24.40;;;;;;4863866;29;20464;-78
2022/06/30 12:51:15;;;;;;;7.87;4.70;;;31.70;24.00;;;;;;4864349;29;20463;-77
2022/06/30 12:53:42;;;;;;;4.60;4.20;;;31.60;24.50;;;;;;4865674;29;20514;-78
2022/06/30 12:56:13;;;;;;;4.00;3.70;;;31.50;24.40;;;;;;4864937;29;20463;-78
2022/06/30 12:58:50;;;;;;;7.37;4.70;;;31.40;24.90;;;;;;4867869;29;20471;-77
2022/06/30 13:01:19;;;;;;;4.73;4.30;;;31.60;24.50;;;;;;4868829;29;20437;-78
2022/06/30 13:03:52;;;;;;;6.73;4.07;;;32.00;24.60;;;;;;4869033;29;20512;-79
2022/06/30 13:06:19;;;;;;;5.80;4.60;;;32.10;23.30;;;;;;4858364;29;20467;-80
2022/06/30 13:08:47;;;;;;;5.13;4.10;;;31.70;23.70;;;;;;4851162;29;20439;-80
2022/06/30 13:11:16;;;;;;;4.57;4.20;;;31.90;23.80;;;;;;4851352;29;20439;-79
2022/06/30 13:13:47;;;;;;;4.40;4.10;;;32.00;23.30;;;;;;4848400;29;20504;-79
2022/06/30 13:16:14;;;;;;;7.80;4.47;;;31.80;23.60;;;;;;4849507;29;20496;-79